sensor_id;sensor_type;location;lat;lon;timestamp;temperature;humidity
33717;DHT22;20046;50.746;7.072;2022-11-15T00:01:10;10.50;99.90
33717;DHT22;20046;50.746;7.072;2022-11-15T00:03:39;10.50;99.90
33717;DHT22;20046;50.746;7.072;2022-11-15T00:06:04;10.50;99.90
33717;DHT22;20046;50.746;7.072;2022-11-15T00:08:31;10.50;99.90
33717;DHT22;20046;50.746;7.072;2022-11-15T00:11:01;10.50;99.90
33717;DHT22;20046;50.746;7.072;2022-11-15T00:13:28;10.50;99.90
33717;DHT22;20046;50.746;7.072;2022-11-15T00:15:57;10.50;99.90
33717;DHT22;20046;50.746;7.072;2022-11-15T00:18:23;10.40;99.90
33717;DHT22;20046;50.746;7.072;2022-11-15T00:20:49;10.40;99.90
33717;DHT22;20046;50.746;7.072;2022-11-15T00:23:14;10.40;99.90
33717;DHT22;20046;50.746;7.072;2022-11-15T00:25:40;10.40;99.90
33717;DHT22;20046;50.746;7.072;2022-11-15T00:28:06;10.40;99.90
33717;DHT22;20046;50.746;7.072;2022-11-15T00:30:31;10.50;99.90
33717;DHT22;20046;50.746;7.072;2022-11-15T00:33:04;10.50;99.90
33717;DHT22;20046;50.746;7.072;2022-11-15T00:35:34;10.50;99.90
33717;DHT22;20046;50.746;7.072;2022-11-15T00:38:01;10.50;99.90
33717;DHT22;20046;50.746;7.072;2022-11-15T00:40:27;10.50;99.90
33717;DHT22;20046;50.746;7.072;2022-11-15T00:42:52;10.50;99.90
33717;DHT22;20046;50.746;7.072;2022-11-15T00:45:18;10.50;99.90
33717;DHT22;20046;50.746;7.072;2022-11-15T00:47:44;10.50;99.90
33717;DHT22;20046;50.746;7.072;2022-11-15T00:50:11;10.50;99.90
33717;DHT22;20046;50.746;7.072;2022-11-15T00:52:36;10.50;99.90
33717;DHT22;20046;50.746;7.072;2022-11-15T00:55:02;10.50;99.90
33717;DHT22;20046;50.746;7.072;2022-11-15T00:57:28;10.60;99.90
33717;DHT22;20046;50.746;7.072;2022-11-15T00:59:53;10.60;99.90
33717;DHT22;20046;50.746;7.072;2022-11-15T01:02:19;10.60;99.90
33717;DHT22;20046;50.746;7.072;2022-11-15T01:04:45;10.70;99.90
33717;DHT22;20046;50.746;7.072;2022-11-15T01:07:10;10.80;99.90
33717;DHT22;20046;50.746;7.072;2022-11-15T01:09:36;10.80;99.90
33717;DHT22;20046;50.746;7.072;2022-11-15T01:12:01;10.90;99.90
33717;DHT22;20046;50.746;7.072;2022-11-15T01:14:27;10.90;99.90
33717;DHT22;20046;50.746;7.072;2022-11-15T01:16:53;11.00;99.90
33717;DHT22;20046;50.746;7.072;2022-11-15T01:19:18;11.00;99.90
33717;DHT22;20046;50.746;7.072;2022-11-15T01:21:44;11.10;99.90
33717;DHT22;20046;50.746;7.072;2022-11-15T01:24:12;11.10;99.90
33717;DHT22;20046;50.746;7.072;2022-11-15T01:26:38;11.10;99.90
33717;DHT22;20046;50.746;7.072;2022-11-15T01:29:04;11.20;99.90
33717;DHT22;20046;50.746;7.072;2022-11-15T01:31:29;11.20;99.90
33717;DHT22;20046;50.746;7.072;2022-11-15T01:33:55;11.30;99.90
33717;DHT22;20046;50.746;7.072;2022-11-15T01:36:21;11.30;99.90
33717;DHT22;20046;50.746;7.072;2022-11-15T01:38:56;11.20;99.90
33717;DHT22;20046;50.746;7.072;2022-11-15T01:41:32;11.30;99.90
33717;DHT22;20046;50.746;7.072;2022-11-15T01:47:04;11.20;99.90
33717;DHT22;20046;50.746;7.072;2022-11-15T01:49:33;11.20;99.90
33717;DHT22;20046;50.746;7.072;2022-11-15T01:52:00;11.20;99.90
33717;DHT22;20046;50.746;7.072;2022-11-15T01:54:27;11.20;99.90
33717;DHT22;20046;50.746;7.072;2022-11-15T01:57:07;11.30;99.90
33717;DHT22;20046;50.746;7.072;2022-11-15T01:59:33;11.30;99.90
33717;DHT22;20046;50.746;7.072;2022-11-15T02:02:00;11.30;99.90
33717;DHT22;20046;50.746;7.072;2022-11-15T02:04:34;11.40;99.90
33717;DHT22;20046;50.746;7.072;2022-11-15T02:07:03;11.40;99.90
33717;DHT22;20046;50.746;7.072;2022-11-15T02:09:29;11.40;99.90
33717;DHT22;20046;50.746;7.072;2022-11-15T02:11:55;11.50;99.90
33717;DHT22;20046;50.746;7.072;2022-11-15T02:14:22;11.50;99.90
33717;DHT22;20046;50.746;7.072;2022-11-15T02:23:03;11.60;99.90
33717;DHT22;20046;50.746;7.072;2022-11-15T02:31:50;11.60;99.90
33717;DHT22;20046;50.746;7.072;2022-11-15T02:40:06;11.70;99.90
33717;DHT22;20046;50.746;7.072;2022-11-15T02:42:36;11.70;99.90
33717;DHT22;20046;50.746;7.072;2022-11-15T02:45:27;11.70;99.90
33717;DHT22;20046;50.746;7.072;2022-11-15T02:47:55;11.70;99.90
33717;DHT22;20046;50.746;7.072;2022-11-15T02:50:26;11.70;99.90
33717;DHT22;20046;50.746;7.072;2022-11-15T02:52:52;11.70;99.90
33717;DHT22;20046;50.746;7.072;2022-11-15T02:55:27;11.70;99.90
33717;DHT22;20046;50.746;7.072;2022-11-15T03:00:33;11.80;99.90
33717;DHT22;20046;50.746;7.072;2022-11-15T03:03:20;11.80;99.90
33717;DHT22;20046;50.746;7.072;2022-11-15T03:06:14;11.80;99.90
33717;DHT22;20046;50.746;7.072;2022-11-15T03:11:32;11.80;99.90
33717;DHT22;20046;50.746;7.072;2022-11-15T03:14:20;11.80;99.90
33717;DHT22;20046;50.746;7.072;2022-11-15T03:16:51;11.80;99.90
33717;DHT22;20046;50.746;7.072;2022-11-15T03:19:34;11.80;99.90
33717;DHT22;20046;50.746;7.072;2022-11-15T03:22:04;11.80;99.90
33717;DHT22;20046;50.746;7.072;2022-11-15T03:24:34;11.90;99.90
33717;DHT22;20046;50.746;7.072;2022-11-15T03:27:03;11.90;99.90
33717;DHT22;20046;50.746;7.072;2022-11-15T03:29:37;11.90;99.90
33717;DHT22;20046;50.746;7.072;2022-11-15T03:32:15;11.90;99.90
33717;DHT22;20046;50.746;7.072;2022-11-15T03:34:46;11.90;99.90
33717;DHT22;20046;50.746;7.072;2022-11-15T03:37:14;11.90;99.90
33717;DHT22;20046;50.746;7.072;2022-11-15T03:39:40;11.90;99.90
33717;DHT22;20046;50.746;7.072;2022-11-15T03:45:03;12.00;99.90
33717;DHT22;20046;50.746;7.072;2022-11-15T03:47:39;12.00;99.90
33717;DHT22;20046;50.746;7.072;2022-11-15T03:50:16;12.00;99.90
33717;DHT22;20046;50.746;7.072;2022-11-15T03:52:44;12.00;99.90
33717;DHT22;20046;50.746;7.072;2022-11-15T03:55:13;12.00;99.90
33717;DHT22;20046;50.746;7.072;2022-11-15T03:57:40;12.00;99.90
33717;DHT22;20046;50.746;7.072;2022-11-15T04:00:06;12.10;99.90
33717;DHT22;20046;50.746;7.072;2022-11-15T04:02:32;12.10;99.90
33717;DHT22;20046;50.746;7.072;2022-11-15T04:04:58;12.10;99.90
33717;DHT22;20046;50.746;7.072;2022-11-15T04:07:23;12.10;99.90
33717;DHT22;20046;50.746;7.072;2022-11-15T04:09:49;12.00;99.90
33717;DHT22;20046;50.746;7.072;2022-11-15T04:12:35;12.00;99.90
33717;DHT22;20046;50.746;7.072;2022-11-15T04:15:07;11.90;99.90
33717;DHT22;20046;50.746;7.072;2022-11-15T04:17:46;11.90;99.90
33717;DHT22;20046;50.746;7.072;2022-11-15T04:22:59;11.80;99.90
33717;DHT22;20046;50.746;7.072;2022-11-15T04:25:44;11.70;99.90
33717;DHT22;20046;50.746;7.072;2022-11-15T04:28:10;11.60;99.90
33717;DHT22;20046;50.746;7.072;2022-11-15T04:30:36;11.60;99.90
33717;DHT22;20046;50.746;7.072;2022-11-15T04:33:02;11.50;99.90
33717;DHT22;20046;50.746;7.072;2022-11-15T04:35:28;11.40;99.90
33717;DHT22;20046;50.746;7.072;2022-11-15T04:37:54;11.30;99.90
33717;DHT22;20046;50.746;7.072;2022-11-15T04:40:20;11.30;99.90
33717;DHT22;20046;50.746;7.072;2022-11-15T04:42:45;11.20;99.90
33717;DHT22;20046;50.746;7.072;2022-11-15T04:45:11;11.30;99.90
33717;DHT22;20046;50.746;7.072;2022-11-15T04:47:36;11.20;99.90
33717;DHT22;20046;50.746;7.072;2022-11-15T04:50:03;11.30;99.90
33717;DHT22;20046;50.746;7.072;2022-11-15T04:52:29;11.30;99.90
33717;DHT22;20046;50.746;7.072;2022-11-15T04:54:54;11.30;99.90
33717;DHT22;20046;50.746;7.072;2022-11-15T04:57:20;11.40;99.90
33717;DHT22;20046;50.746;7.072;2022-11-15T04:59:46;11.40;99.90
33717;DHT22;20046;50.746;7.072;2022-11-15T05:02:11;11.50;99.90
33717;DHT22;20046;50.746;7.072;2022-11-15T05:04:37;11.50;99.90
33717;DHT22;20046;50.746;7.072;2022-11-15T05:07:02;11.50;99.90
33717;DHT22;20046;50.746;7.072;2022-11-15T05:09:31;11.60;99.90
33717;DHT22;20046;50.746;7.072;2022-11-15T05:11:56;11.60;99.90
33717;DHT22;20046;50.746;7.072;2022-11-15T05:14:22;11.50;99.90
33717;DHT22;20046;50.746;7.072;2022-11-15T05:16:49;11.40;99.90
33717;DHT22;20046;50.746;7.072;2022-11-15T05:19:14;11.30;99.90
33717;DHT22;20046;50.746;7.072;2022-11-15T05:21:40;11.30;99.90
33717;DHT22;20046;50.746;7.072;2022-11-15T05:24:05;11.20;99.90
33717;DHT22;20046;50.746;7.072;2022-11-15T05:26:31;11.20;99.90
33717;DHT22;20046;50.746;7.072;2022-11-15T05:28:58;11.10;99.90
33717;DHT22;20046;50.746;7.072;2022-11-15T05:31:25;11.10;99.90
33717;DHT22;20046;50.746;7.072;2022-11-15T05:33:51;11.10;99.90
33717;DHT22;20046;50.746;7.072;2022-11-15T05:36:39;11.10;99.90
33717;DHT22;20046;50.746;7.072;2022-11-15T05:39:06;11.00;99.90
33717;DHT22;20046;50.746;7.072;2022-11-15T05:41:37;11.00;99.90
33717;DHT22;20046;50.746;7.072;2022-11-15T05:44:07;10.90;99.90
33717;DHT22;20046;50.746;7.072;2022-11-15T05:46:36;10.90;99.90
33717;DHT22;20046;50.746;7.072;2022-11-15T05:49:02;10.90;99.90
33717;DHT22;20046;50.746;7.072;2022-11-15T05:51:30;10.90;99.90
33717;DHT22;20046;50.746;7.072;2022-11-15T05:53:56;10.90;99.90
33717;DHT22;20046;50.746;7.072;2022-11-15T05:56:23;10.80;99.90
33717;DHT22;20046;50.746;7.072;2022-11-15T05:58:49;10.80;99.90
33717;DHT22;20046;50.746;7.072;2022-11-15T06:01:15;10.80;99.90
33717;DHT22;20046;50.746;7.072;2022-11-15T06:03:40;10.80;99.90
33717;DHT22;20046;50.746;7.072;2022-11-15T06:06:06;10.80;99.90
33717;DHT22;20046;50.746;7.072;2022-11-15T06:08:32;10.70;99.90
33717;DHT22;20046;50.746;7.072;2022-11-15T06:11:03;10.70;99.90
33717;DHT22;20046;50.746;7.072;2022-11-15T06:13:29;10.70;99.90
33717;DHT22;20046;50.746;7.072;2022-11-15T06:15:57;10.70;99.90
33717;DHT22;20046;50.746;7.072;2022-11-15T06:18:23;10.70;99.90
33717;DHT22;20046;50.746;7.072;2022-11-15T06:20:49;10.80;99.90
33717;DHT22;20046;50.746;7.072;2022-11-15T06:23:14;10.80;99.90
33717;DHT22;20046;50.746;7.072;2022-11-15T06:25:40;10.80;99.90
33717;DHT22;20046;50.746;7.072;2022-11-15T06:28:06;10.80;99.90
33717;DHT22;20046;50.746;7.072;2022-11-15T06:30:31;10.80;99.90
33717;DHT22;20046;50.746;7.072;2022-11-15T06:33:04;10.70;99.90
33717;DHT22;20046;50.746;7.072;2022-11-15T06:35:33;10.70;99.90
33717;DHT22;20046;50.746;7.072;2022-11-15T06:38:07;10.70;99.90
33717;DHT22;20046;50.746;7.072;2022-11-15T06:40:35;10.60;99.90
33717;DHT22;20046;50.746;7.072;2022-11-15T06:43:01;10.70;99.90
33717;DHT22;20046;50.746;7.072;2022-11-15T06:45:27;10.70;99.90
33717;DHT22;20046;50.746;7.072;2022-11-15T06:47:52;10.80;99.90
33717;DHT22;20046;50.746;7.072;2022-11-15T06:50:18;10.80;99.90
33717;DHT22;20046;50.746;7.072;2022-11-15T06:52:44;10.80;99.90
33717;DHT22;20046;50.746;7.072;2022-11-15T06:55:09;10.80;99.90
33717;DHT22;20046;50.746;7.072;2022-11-15T06:57:36;10.80;99.90
33717;DHT22;20046;50.746;7.072;2022-11-15T07:00:03;10.80;99.90
33717;DHT22;20046;50.746;7.072;2022-11-15T07:02:29;10.80;99.90
33717;DHT22;20046;50.746;7.072;2022-11-15T07:04:54;10.80;99.90
33717;DHT22;20046;50.746;7.072;2022-11-15T07:07:20;10.80;99.90
33717;DHT22;20046;50.746;7.072;2022-11-15T07:09:45;10.80;99.90
33717;DHT22;20046;50.746;7.072;2022-11-15T07:12:11;10.80;99.90
33717;DHT22;20046;50.746;7.072;2022-11-15T07:14:36;10.80;99.90
33717;DHT22;20046;50.746;7.072;2022-11-15T07:17:05;10.80;99.90
33717;DHT22;20046;50.746;7.072;2022-11-15T07:19:31;10.80;99.90
33717;DHT22;20046;50.746;7.072;2022-11-15T07:21:57;10.80;99.90
33717;DHT22;20046;50.746;7.072;2022-11-15T07:24:22;10.80;99.90
33717;DHT22;20046;50.746;7.072;2022-11-15T07:26:48;10.90;99.90
33717;DHT22;20046;50.746;7.072;2022-11-15T07:29:13;10.90;99.90
33717;DHT22;20046;50.746;7.072;2022-11-15T07:31:39;10.80;99.90
33717;DHT22;20046;50.746;7.072;2022-11-15T07:34:05;10.90;99.90
33717;DHT22;20046;50.746;7.072;2022-11-15T07:36:30;10.90;99.90
33717;DHT22;20046;50.746;7.072;2022-11-15T07:38:56;10.90;99.90
33717;DHT22;20046;50.746;7.072;2022-11-15T07:41:21;11.00;99.90
33717;DHT22;20046;50.746;7.072;2022-11-15T07:43:47;11.00;99.90
33717;DHT22;20046;50.746;7.072;2022-11-15T07:46:16;11.10;99.90
33717;DHT22;20046;50.746;7.072;2022-11-15T07:48:41;11.10;99.90
33717;DHT22;20046;50.746;7.072;2022-11-15T07:51:09;11.20;99.90
33717;DHT22;20046;50.746;7.072;2022-11-15T07:53:35;11.30;99.90
33717;DHT22;20046;50.746;7.072;2022-11-15T07:56:00;11.30;99.90
33717;DHT22;20046;50.746;7.072;2022-11-15T07:58:26;11.40;99.90
33717;DHT22;20046;50.746;7.072;2022-11-15T08:00:51;11.50;99.90
33717;DHT22;20046;50.746;7.072;2022-11-15T08:03:17;11.50;99.90
33717;DHT22;20046;50.746;7.072;2022-11-15T08:05:43;11.60;99.90
33717;DHT22;20046;50.746;7.072;2022-11-15T08:08:14;11.60;99.90
33717;DHT22;20046;50.746;7.072;2022-11-15T08:10:40;11.60;99.90
33717;DHT22;20046;50.746;7.072;2022-11-15T08:13:08;11.70;99.90
33717;DHT22;20046;50.746;7.072;2022-11-15T08:15:35;11.70;99.90
33717;DHT22;20046;50.746;7.072;2022-11-15T08:18:03;11.80;99.90
33717;DHT22;20046;50.746;7.072;2022-11-15T08:20:30;11.80;99.90
33717;DHT22;20046;50.746;7.072;2022-11-15T08:23:00;11.80;99.90
33717;DHT22;20046;50.746;7.072;2022-11-15T08:25:27;11.90;99.90
33717;DHT22;20046;50.746;7.072;2022-11-15T08:27:54;12.00;99.90
33717;DHT22;20046;50.746;7.072;2022-11-15T08:30:20;12.10;99.90
33717;DHT22;20046;50.746;7.072;2022-11-15T08:32:45;12.10;99.90
33717;DHT22;20046;50.746;7.072;2022-11-15T08:35:11;12.20;99.90
33717;DHT22;20046;50.746;7.072;2022-11-15T08:37:37;12.30;99.90
33717;DHT22;20046;50.746;7.072;2022-11-15T08:40:03;12.30;99.90
33717;DHT22;20046;50.746;7.072;2022-11-15T08:42:29;12.40;99.90
33717;DHT22;20046;50.746;7.072;2022-11-15T08:44:54;12.50;99.90
33717;DHT22;20046;50.746;7.072;2022-11-15T08:47:20;12.50;99.90
33717;DHT22;20046;50.746;7.072;2022-11-15T08:49:45;12.60;99.90
33717;DHT22;20046;50.746;7.072;2022-11-15T08:52:11;12.70;99.90
33717;DHT22;20046;50.746;7.072;2022-11-15T08:54:36;12.80;99.90
33717;DHT22;20046;50.746;7.072;2022-11-15T08:57:02;12.90;99.90
33717;DHT22;20046;50.746;7.072;2022-11-15T08:59:28;13.00;99.90
33717;DHT22;20046;50.746;7.072;2022-11-15T09:01:53;13.20;99.90
33717;DHT22;20046;50.746;7.072;2022-11-15T09:04:19;13.30;99.90
33717;DHT22;20046;50.746;7.072;2022-11-15T09:06:45;13.40;99.90
33717;DHT22;20046;50.746;7.072;2022-11-15T09:09:10;13.50;99.90
33717;DHT22;20046;50.746;7.072;2022-11-15T09:11:36;13.60;99.90
33717;DHT22;20046;50.746;7.072;2022-11-15T09:14:02;13.60;99.90
33717;DHT22;20046;50.746;7.072;2022-11-15T09:16:27;13.60;99.90
33717;DHT22;20046;50.746;7.072;2022-11-15T09:18:53;13.60;99.90
33717;DHT22;20046;50.746;7.072;2022-11-15T09:21:19;13.80;99.90
33717;DHT22;20046;50.746;7.072;2022-11-15T09:23:46;14.00;99.90
33717;DHT22;20046;50.746;7.072;2022-11-15T09:26:12;14.20;99.90
33717;DHT22;20046;50.746;7.072;2022-11-15T09:28:38;14.30;99.90
33717;DHT22;20046;50.746;7.072;2022-11-15T09:31:07;14.50;99.90
33717;DHT22;20046;50.746;7.072;2022-11-15T09:33:32;14.60;99.90
33717;DHT22;20046;50.746;7.072;2022-11-15T09:36:03;14.70;99.90
33717;DHT22;20046;50.746;7.072;2022-11-15T09:38:29;14.60;99.90
33717;DHT22;20046;50.746;7.072;2022-11-15T09:43:45;14.50;99.90
33717;DHT22;20046;50.746;7.072;2022-11-15T09:46:21;14.40;99.90
33717;DHT22;20046;50.746;7.072;2022-11-15T09:48:56;14.50;99.90
33717;DHT22;20046;50.746;7.072;2022-11-15T09:51:30;14.40;99.90
33717;DHT22;20046;50.746;7.072;2022-11-15T09:54:29;14.30;99.90
33717;DHT22;20046;50.746;7.072;2022-11-15T09:57:06;14.30;99.90
33717;DHT22;20046;50.746;7.072;2022-11-15T10:05:04;14.10;99.90
33717;DHT22;20046;50.746;7.072;2022-11-15T10:07:59;14.20;99.90
33717;DHT22;20046;50.746;7.072;2022-11-15T10:10:44;14.30;99.90
33717;DHT22;20046;50.746;7.072;2022-11-15T10:24:11;14.70;99.90
33717;DHT22;20046;50.746;7.072;2022-11-15T10:26:37;14.90;99.90
33717;DHT22;20046;50.746;7.072;2022-11-15T10:29:02;15.10;99.90
33717;DHT22;20046;50.746;7.072;2022-11-15T10:31:29;15.30;99.90
33717;DHT22;20046;50.746;7.072;2022-11-15T10:34:14;15.30;99.90
33717;DHT22;20046;50.746;7.072;2022-11-15T10:36:45;15.30;99.90
33717;DHT22;20046;50.746;7.072;2022-11-15T10:39:14;15.40;99.90
33717;DHT22;20046;50.746;7.072;2022-11-15T10:41:41;15.60;99.90
33717;DHT22;20046;50.746;7.072;2022-11-15T10:46:43;16.00;99.90
33717;DHT22;20046;50.746;7.072;2022-11-15T10:49:24;16.20;99.90
33717;DHT22;20046;50.746;7.072;2022-11-15T10:52:16;16.40;99.90
33717;DHT22;20046;50.746;7.072;2022-11-15T10:54:51;16.60;99.90
33717;DHT22;20046;50.746;7.072;2022-11-15T10:57:27;16.50;99.90
33717;DHT22;20046;50.746;7.072;2022-11-15T11:02:59;16.70;99.90
33717;DHT22;20046;50.746;7.072;2022-11-15T11:05:35;17.00;99.90
33717;DHT22;20046;50.746;7.072;2022-11-15T11:08:21;17.40;99.90
33717;DHT22;20046;50.746;7.072;2022-11-15T11:10:54;17.50;99.90
33717;DHT22;20046;50.746;7.072;2022-11-15T11:13:26;17.60;99.90
33717;DHT22;20046;50.746;7.072;2022-11-15T11:18:57;17.00;99.90
33717;DHT22;20046;50.746;7.072;2022-11-15T11:27:19;17.90;99.90
33717;DHT22;20046;50.746;7.072;2022-11-15T11:30:09;19.20;99.90
33717;DHT22;20046;50.746;7.072;2022-11-15T11:35:14;21.40;97.20
33717;DHT22;20046;50.746;7.072;2022-11-15T11:40:31;23.90;92.00
33717;DHT22;20046;50.746;7.072;2022-11-15T11:52:00;24.90;81.20
33717;DHT22;20046;50.746;7.072;2022-11-15T11:57:17;24.70;80.50
33717;DHT22;20046;50.746;7.072;2022-11-15T12:00:19;24.70;81.30
33717;DHT22;20046;50.746;7.072;2022-11-15T12:08:44;21.40;84.60
33717;DHT22;20046;50.746;7.072;2022-11-15T12:11:21;20.30;87.20
33717;DHT22;20046;50.746;7.072;2022-11-15T12:13:53;19.40;89.80
33717;DHT22;20046;50.746;7.072;2022-11-15T12:16:28;19.00;90.60
33717;DHT22;20046;50.746;7.072;2022-11-15T12:18:56;18.50;91.50
33717;DHT22;20046;50.746;7.072;2022-11-15T12:29:58;17.30;96.90
33717;DHT22;20046;50.746;7.072;2022-11-15T12:32:33;16.80;98.30
33717;DHT22;20046;50.746;7.072;2022-11-15T12:35:02;16.40;99.50
33717;DHT22;20046;50.746;7.072;2022-11-15T12:45:01;15.90;99.90
33717;DHT22;20046;50.746;7.072;2022-11-15T12:47:27;15.70;99.90
33717;DHT22;20046;50.746;7.072;2022-11-15T12:49:53;15.60;99.90
33717;DHT22;20046;50.746;7.072;2022-11-15T12:52:19;15.60;99.90
33717;DHT22;20046;50.746;7.072;2022-11-15T12:54:53;15.50;99.90
33717;DHT22;20046;50.746;7.072;2022-11-15T13:17:49;16.10;99.90
33717;DHT22;20046;50.746;7.072;2022-11-15T13:30:53;15.40;99.90
33717;DHT22;20046;50.746;7.072;2022-11-15T13:33:39;15.40;99.90
33717;DHT22;20046;50.746;7.072;2022-11-15T13:36:17;15.30;99.90
33717;DHT22;20046;50.746;7.072;2022-11-15T13:38:44;15.40;99.90
33717;DHT22;20046;50.746;7.072;2022-11-15T13:41:22;15.40;99.90
33717;DHT22;20046;50.746;7.072;2022-11-15T13:43:52;15.40;99.90
33717;DHT22;20046;50.746;7.072;2022-11-15T13:46:25;15.40;99.90
33717;DHT22;20046;50.746;7.072;2022-11-15T13:49:05;15.30;99.90
33717;DHT22;20046;50.746;7.072;2022-11-15T13:51:42;15.30;99.90
33717;DHT22;20046;50.746;7.072;2022-11-15T13:56:38;15.10;99.90
33717;DHT22;20046;50.746;7.072;2022-11-15T13:59:18;15.10;99.90
33717;DHT22;20046;50.746;7.072;2022-11-15T14:01:45;15.10;99.90
33717;DHT22;20046;50.746;7.072;2022-11-15T14:04:13;15.10;99.90
33717;DHT22;20046;50.746;7.072;2022-11-15T14:06:46;15.00;99.90
33717;DHT22;20046;50.746;7.072;2022-11-15T14:11:56;15.20;99.90
33717;DHT22;20046;50.746;7.072;2022-11-15T14:14:26;15.20;99.90
33717;DHT22;20046;50.746;7.072;2022-11-15T14:16:54;15.20;99.90
33717;DHT22;20046;50.746;7.072;2022-11-15T14:22:08;15.30;99.90
33717;DHT22;20046;50.746;7.072;2022-11-15T14:24:35;15.30;99.90
33717;DHT22;20046;50.746;7.072;2022-11-15T14:27:27;15.20;99.90
33717;DHT22;20046;50.746;7.072;2022-11-15T14:29:53;15.20;99.90
33717;DHT22;20046;50.746;7.072;2022-11-15T14:32:37;15.10;99.90
33717;DHT22;20046;50.746;7.072;2022-11-15T14:35:03;15.00;99.90
33717;DHT22;20046;50.746;7.072;2022-11-15T14:37:31;15.00;99.90
33717;DHT22;20046;50.746;7.072;2022-11-15T14:39:59;14.90;99.90
33717;DHT22;20046;50.746;7.072;2022-11-15T14:42:25;14.90;99.90
33717;DHT22;20046;50.746;7.072;2022-11-15T14:44:51;14.90;99.90
33717;DHT22;20046;50.746;7.072;2022-11-15T14:47:17;14.80;99.90
33717;DHT22;20046;50.746;7.072;2022-11-15T14:49:43;14.90;99.90
33717;DHT22;20046;50.746;7.072;2022-11-15T14:52:27;14.90;99.90
33717;DHT22;20046;50.746;7.072;2022-11-15T14:54:54;14.90;99.90
33717;DHT22;20046;50.746;7.072;2022-11-15T14:57:21;14.90;99.90
33717;DHT22;20046;50.746;7.072;2022-11-15T14:59:46;14.80;99.90
33717;DHT22;20046;50.746;7.072;2022-11-15T15:02:21;14.80;99.90
33717;DHT22;20046;50.746;7.072;2022-11-15T15:04:48;14.70;99.90
33717;DHT22;20046;50.746;7.072;2022-11-15T15:07:14;14.60;99.90
33717;DHT22;20046;50.746;7.072;2022-11-15T15:09:40;14.60;99.90
33717;DHT22;20046;50.746;7.072;2022-11-15T15:12:24;14.50;99.90
33717;DHT22;20046;50.746;7.072;2022-11-15T15:14:50;14.50;99.90
33717;DHT22;20046;50.746;7.072;2022-11-15T15:17:17;14.40;99.90
33717;DHT22;20046;50.746;7.072;2022-11-15T15:19:43;14.40;99.90
33717;DHT22;20046;50.746;7.072;2022-11-15T15:22:19;14.40;99.90
33717;DHT22;20046;50.746;7.072;2022-11-15T15:24:48;14.30;99.90
33717;DHT22;20046;50.746;7.072;2022-11-15T15:27:14;14.30;99.90
33717;DHT22;20046;50.746;7.072;2022-11-15T15:29:40;14.30;99.90
33717;DHT22;20046;50.746;7.072;2022-11-15T15:32:06;14.30;99.90
33717;DHT22;20046;50.746;7.072;2022-11-15T15:34:32;14.20;99.90
33717;DHT22;20046;50.746;7.072;2022-11-15T15:39:38;14.20;99.90
33717;DHT22;20046;50.746;7.072;2022-11-15T15:42:03;14.10;99.90
33717;DHT22;20046;50.746;7.072;2022-11-15T15:44:29;14.10;99.90
33717;DHT22;20046;50.746;7.072;2022-11-15T15:46:54;14.10;99.90
33717;DHT22;20046;50.746;7.072;2022-11-15T15:49:20;14.10;99.90
33717;DHT22;20046;50.746;7.072;2022-11-15T15:51:46;14.00;99.90
33717;DHT22;20046;50.746;7.072;2022-11-15T15:54:11;14.00;99.90
33717;DHT22;20046;50.746;7.072;2022-11-15T15:56:37;13.90;99.90
33717;DHT22;20046;50.746;7.072;2022-11-15T15:59:02;13.90;99.90
33717;DHT22;20046;50.746;7.072;2022-11-15T16:01:28;13.90;99.90
33717;DHT22;20046;50.746;7.072;2022-11-15T16:03:53;13.90;99.90
33717;DHT22;20046;50.746;7.072;2022-11-15T16:06:33;13.90;99.90
33717;DHT22;20046;50.746;7.072;2022-11-15T16:09:00;13.90;99.90
33717;DHT22;20046;50.746;7.072;2022-11-15T16:11:25;13.90;99.90
33717;DHT22;20046;50.746;7.072;2022-11-15T16:13:51;14.00;99.90
33717;DHT22;20046;50.746;7.072;2022-11-15T16:16:17;13.90;99.90
33717;DHT22;20046;50.746;7.072;2022-11-15T16:18:44;14.00;99.90
33717;DHT22;20046;50.746;7.072;2022-11-15T16:21:10;13.90;99.90
33717;DHT22;20046;50.746;7.072;2022-11-15T16:23:35;13.90;99.90
33717;DHT22;20046;50.746;7.072;2022-11-15T16:26:01;13.90;99.90
33717;DHT22;20046;50.746;7.072;2022-11-15T16:28:32;13.80;99.90
33717;DHT22;20046;50.746;7.072;2022-11-15T16:31:04;13.80;99.90
33717;DHT22;20046;50.746;7.072;2022-11-15T16:33:30;13.90;99.90
33717;DHT22;20046;50.746;7.072;2022-11-15T16:35:56;13.80;99.90
33717;DHT22;20046;50.746;7.072;2022-11-15T16:38:22;13.80;99.90
33717;DHT22;20046;50.746;7.072;2022-11-15T16:40:47;13.80;99.90
33717;DHT22;20046;50.746;7.072;2022-11-15T16:43:13;13.80;99.90
33717;DHT22;20046;50.746;7.072;2022-11-15T16:45:39;13.80;99.90
33717;DHT22;20046;50.746;7.072;2022-11-15T16:48:04;13.80;99.90
33717;DHT22;20046;50.746;7.072;2022-11-15T16:50:32;13.80;99.90
33717;DHT22;20046;50.746;7.072;2022-11-15T16:53:04;13.80;99.90
33717;DHT22;20046;50.746;7.072;2022-11-15T16:55:29;13.80;99.90
33717;DHT22;20046;50.746;7.072;2022-11-15T16:57:56;13.80;99.90
33717;DHT22;20046;50.746;7.072;2022-11-15T17:00:25;13.70;99.90
33717;DHT22;20046;50.746;7.072;2022-11-15T17:02:52;13.70;99.90
33717;DHT22;20046;50.746;7.072;2022-11-15T17:05:20;13.70;99.90
33717;DHT22;20046;50.746;7.072;2022-11-15T17:07:47;13.70;99.90
33717;DHT22;20046;50.746;7.072;2022-11-15T17:10:15;13.70;99.90
33717;DHT22;20046;50.746;7.072;2022-11-15T17:12:41;13.80;99.90
33717;DHT22;20046;50.746;7.072;2022-11-15T17:15:07;13.80;99.90
33717;DHT22;20046;50.746;7.072;2022-11-15T17:17:33;13.80;99.90
33717;DHT22;20046;50.746;7.072;2022-11-15T17:19:58;13.80;99.90
33717;DHT22;20046;50.746;7.072;2022-11-15T17:22:24;13.70;99.90
33717;DHT22;20046;50.746;7.072;2022-11-15T17:24:50;13.70;99.90
33717;DHT22;20046;50.746;7.072;2022-11-15T17:27:15;13.70;99.90
33717;DHT22;20046;50.746;7.072;2022-11-15T17:29:41;13.70;99.90
33717;DHT22;20046;50.746;7.072;2022-11-15T17:32:07;13.70;99.90
33717;DHT22;20046;50.746;7.072;2022-11-15T17:34:33;13.70;99.90
33717;DHT22;20046;50.746;7.072;2022-11-15T17:36:59;13.70;99.90
33717;DHT22;20046;50.746;7.072;2022-11-15T17:39:25;13.70;99.90
33717;DHT22;20046;50.746;7.072;2022-11-15T17:41:50;13.70;99.90
33717;DHT22;20046;50.746;7.072;2022-11-15T17:44:16;13.60;99.90
33717;DHT22;20046;50.746;7.072;2022-11-15T17:46:42;13.60;99.90
33717;DHT22;20046;50.746;7.072;2022-11-15T17:49:08;13.60;99.90
33717;DHT22;20046;50.746;7.072;2022-11-15T17:51:34;13.50;99.90
33717;DHT22;20046;50.746;7.072;2022-11-15T17:54:00;13.50;99.90
33717;DHT22;20046;50.746;7.072;2022-11-15T17:56:27;13.40;99.90
33717;DHT22;20046;50.746;7.072;2022-11-15T17:58:55;13.30;99.90
33717;DHT22;20046;50.746;7.072;2022-11-15T18:01:23;13.30;99.90
33717;DHT22;20046;50.746;7.072;2022-11-15T18:03:49;13.20;99.90
33717;DHT22;20046;50.746;7.072;2022-11-15T18:06:16;13.10;99.90